createdAt,value
2023-04-02T00:00:05.917Z,85.06
2023-04-02T00:02:34.050Z,84.98
2023-04-02T00:05:20.442Z,85.03
2023-04-02T00:07:53.097Z,85.00
2023-04-02T00:10:29.098Z,85.03
2023-04-02T00:13:12.230Z,84.94
2023-04-02T00:15:43.553Z,85.23
2023-04-02T00:18:16.526Z,85.43
2023-04-02T00:20:49.287Z,85.35
2023-04-02T00:23:17.140Z,85.20
2023-04-02T00:25:46.383Z,85.10
2023-04-02T00:28:17.993Z,85.31
2023-04-02T00:30:47.163Z,85.42
2023-04-02T00:33:21.583Z,85.61
2023-04-02T00:35:52.109Z,85.79
2023-04-02T00:38:24.956Z,85.72
2023-04-02T00:40:56.546Z,85.93
2023-04-02T00:43:31.515Z,85.95
2023-04-02T00:46:14.711Z,85.93
2023-04-02T00:49:16.937Z,86.03
2023-04-02T00:51:51.668Z,86.29
2023-04-02T00:54:23.316Z,86.44
2023-04-02T00:56:53.758Z,86.28
2023-04-02T00:59:49.602Z,86.43
2023-04-02T01:02:20.083Z,86.49
2023-04-02T01:05:02.403Z,86.39
2023-04-02T01:07:49.516Z,86.38
2023-04-02T01:10:24.712Z,86.42
2023-04-02T01:13:12.484Z,86.32
2023-04-02T01:15:55.582Z,86.29
2023-04-02T01:18:50.375Z,85.90
2023-04-02T01:21:37.208Z,85.84
2023-04-02T01:24:11.325Z,85.93
2023-04-02T01:27:02.553Z,85.91
2023-04-02T01:29:37.208Z,86.09
2023-04-02T01:32:09.304Z,85.89
2023-04-02T01:34:38.134Z,86.05
2023-04-02T01:37:10.408Z,86.09
2023-04-02T01:39:47.300Z,86.16
2023-04-02T01:42:28.971Z,86.22
2023-04-02T01:45:19.779Z,86.26
2023-04-02T01:47:49.010Z,86.14
2023-04-02T01:50:19.728Z,86.02
2023-04-02T01:52:51.665Z,86.10
2023-04-02T01:55:25.565Z,86.32
2023-04-02T01:57:54.425Z,86.40
2023-04-02T02:00:23.216Z,87.00
2023-04-02T02:02:51.999Z,86.83
2023-04-02T02:05:23.786Z,86.87
2023-04-02T02:07:52.284Z,87.18
2023-04-02T02:10:49.645Z,87.76
2023-04-02T02:13:17.334Z,87.47
2023-04-02T02:15:45.713Z,87.59
2023-04-02T02:18:14.458Z,87.78
2023-04-02T02:20:42.747Z,87.81
2023-04-02T02:23:13.171Z,87.46
2023-04-02T02:25:41.724Z,87.43
2023-04-02T02:28:26.162Z,87.79
2023-04-02T02:30:59.259Z,87.86
2023-04-02T02:33:31.842Z,87.78
2023-04-02T02:36:05.011Z,87.69
2023-04-02T02:38:38.571Z,87.61
2023-04-02T02:41:21.660Z,87.73
2023-04-02T02:43:56.808Z,87.62
2023-04-02T02:46:27.352Z,87.71
2023-04-02T02:48:57.735Z,87.63
2023-04-02T02:51:37.608Z,87.65
2023-04-02T02:54:05.717Z,87.62
2023-04-02T02:56:38.523Z,87.63
2023-04-02T02:59:08.638Z,87.52
2023-04-02T03:01:36.974Z,87.60
2023-04-02T03:04:05.098Z,87.45
2023-04-02T03:06:33.252Z,87.35
2023-04-02T03:09:17.766Z,87.83
2023-04-02T03:12:03.830Z,88.18
2023-04-02T03:15:06.485Z,87.97
2023-04-02T03:17:41.369Z,88.13
2023-04-02T03:20:21.095Z,88.42
2023-04-02T03:23:22.082Z,88.40
2023-04-02T03:25:56.464Z,88.43
2023-04-02T03:28:28.934Z,88.50
2023-04-02T03:31:27.911Z,88.23
2023-04-02T03:34:18.596Z,88.46
2023-04-02T03:36:58.104Z,88.72
2023-04-02T03:39:58.158Z,88.65
2023-04-02T03:42:29.859Z,88.73
2023-04-02T03:45:05.230Z,89.04
2023-04-02T03:47:42.678Z,88.53
2023-04-02T03:50:24.814Z,88.56
2023-04-02T03:52:52.981Z,89.36
2023-04-02T03:55:29.160Z,89.24
2023-04-02T03:58:15.128Z,89.31
2023-04-02T04:01:07.244Z,89.49
2023-04-02T04:03:44.177Z,89.51
2023-04-02T04:06:15.934Z,89.61
2023-04-02T04:09:11.846Z,89.68
2023-04-02T04:11:46.765Z,89.64
2023-04-02T04:14:26.970Z,90.11
2023-04-02T04:17:05.371Z,89.96
2023-04-02T04:19:48.529Z,89.99
2023-04-02T04:22:30.709Z,90.15
2023-04-02T04:25:00.902Z,90.44
2023-04-02T04:27:56.693Z,90.79
2023-04-02T04:30:30.216Z,91.02
2023-04-02T04:33:11.107Z,91.12
2023-04-02T04:35:46.630Z,91.40
2023-04-02T04:38:27.661Z,91.67
2023-04-02T04:40:58.970Z,91.76
2023-04-02T04:43:52.828Z,91.62
2023-04-02T04:46:55.409Z,91.44
2023-04-02T04:49:31.976Z,91.62
2023-04-02T04:52:22.299Z,92.05
2023-04-02T04:54:50.113Z,92.16
2023-04-02T04:57:29.969Z,92.02
2023-04-02T05:00:19.641Z,92.04
2023-04-02T05:02:54.416Z,91.91
2023-04-02T05:05:29.352Z,91.57
2023-04-02T05:08:04.359Z,91.74
2023-04-02T05:11:04.365Z,92.10
2023-04-02T05:13:44.732Z,92.35
2023-04-02T05:16:15.587Z,92.36
2023-04-02T05:18:56.427Z,92.45
2023-04-02T05:21:38.433Z,92.48
2023-04-02T05:24:39.543Z,92.42
2023-04-02T05:27:24.541Z,92.37
2023-04-02T05:30:00.720Z,92.29
2023-04-02T05:32:34.759Z,92.23
2023-04-02T05:35:06.617Z,92.22
2023-04-02T05:37:34.635Z,92.10
2023-04-02T05:40:13.603Z,91.99
2023-04-02T05:42:45.223Z,92.01
2023-04-02T05:45:31.347Z,92.03
2023-04-02T05:48:03.582Z,92.08
2023-04-02T05:50:40.090Z,92.08
2023-04-02T05:53:21.694Z,91.98
2023-04-02T05:56:02.269Z,91.85
2023-04-02T05:58:48.186Z,91.71
2023-04-02T06:01:38.207Z,91.66
2023-04-02T06:04:37.771Z,91.63
2023-04-02T06:07:12.423Z,91.62
2023-04-02T06:10:00.440Z,91.64
2023-04-02T06:12:40.603Z,91.50
2023-04-02T06:15:21.154Z,91.44
2023-04-02T06:17:58.515Z,91.31
2023-04-02T06:20:27.122Z,91.22
2023-04-02T06:23:04.800Z,91.20
2023-04-02T06:25:37.937Z,91.14
2023-04-02T06:28:12.008Z,91.06
2023-04-02T06:30:41.759Z,90.95
2023-04-02T06:33:12.776Z,90.78
2023-04-02T06:35:43.055Z,90.80
2023-04-02T06:38:19.653Z,90.49
2023-04-02T06:40:55.235Z,90.01
2023-04-02T06:43:33.492Z,90.08
2023-04-02T06:46:07.364Z,90.06
2023-04-02T06:48:37.866Z,89.72
2023-04-02T06:51:09.212Z,89.04
2023-04-02T06:53:40.252Z,89.16
2023-04-02T06:56:32.998Z,88.80
2023-04-02T06:59:01.178Z,88.79
2023-04-02T07:01:33.600Z,88.85
2023-04-02T07:04:01.613Z,88.98
2023-04-02T07:06:29.584Z,89.02
2023-04-02T07:08:57.241Z,89.15
2023-04-02T07:11:24.915Z,89.26
2023-04-02T07:13:52.756Z,89.41
2023-04-02T07:16:25.796Z,89.68
2023-04-02T07:19:03.068Z,89.66
2023-04-02T07:21:31.422Z,89.64
2023-04-02T07:23:59.374Z,89.63
2023-04-02T07:26:29.174Z,89.87
2023-04-02T07:28:57.293Z,89.89
2023-04-02T07:31:27.860Z,89.75
2023-04-02T07:34:00.335Z,90.04
2023-04-02T07:36:29.840Z,90.21
2023-04-02T07:38:58.563Z,90.34
2023-04-02T07:41:26.560Z,90.41
2023-04-02T07:43:54.385Z,90.45
2023-04-02T07:46:22.266Z,90.47
2023-04-02T07:49:00.216Z,90.46
2023-04-02T07:51:28.373Z,90.27
2023-04-02T07:53:56.426Z,90.19
2023-04-02T07:56:25.496Z,90.41
2023-04-02T07:58:53.230Z,90.44
2023-04-02T08:01:25.566Z,90.40
2023-04-02T08:03:54.844Z,90.52
2023-04-02T08:06:23.981Z,90.50
2023-04-02T08:08:51.852Z,90.53
2023-04-02T08:11:20.075Z,90.55
2023-04-02T08:13:48.014Z,90.32
2023-04-02T08:16:16.910Z,89.82
2023-04-02T08:18:47.496Z,89.62
2023-04-02T08:21:16.533Z,89.68
2023-04-02T08:23:44.937Z,89.41
2023-04-02T08:26:17.467Z,89.17
2023-04-02T08:28:45.550Z,89.18
2023-04-02T08:31:13.537Z,89.17
2023-04-02T08:33:41.325Z,89.20
2023-04-02T08:36:15.701Z,89.09
2023-04-02T08:38:43.416Z,88.91
2023-04-02T08:41:22.606Z,88.97
2023-04-02T08:44:02.210Z,88.88
2023-04-02T08:46:45.838Z,88.81
2023-04-02T08:49:16.889Z,88.91
2023-04-02T08:51:46.394Z,88.94
2023-04-02T08:54:43.666Z,88.95
2023-04-02T08:57:21.319Z,88.28
2023-04-02T08:59:59.775Z,87.80
2023-04-02T09:02:47.340Z,87.06
2023-04-02T09:05:26.520Z,86.73
2023-04-02T09:07:58.580Z,86.60
2023-04-02T09:10:37.779Z,85.60
2023-04-02T09:13:20.656Z,85.55
2023-04-02T09:15:50.801Z,84.88
2023-04-02T09:18:20.757Z,84.53
2023-04-02T09:20:49.510Z,84.33
2023-04-02T09:23:23.902Z,84.62
2023-04-02T09:26:03.466Z,84.08
2023-04-02T09:28:34.857Z,84.20
2023-04-02T09:31:34.625Z,84.22
2023-04-02T09:34:22.504Z,84.05
2023-04-02T09:36:50.560Z,84.26
2023-04-02T09:39:21.240Z,83.13
2023-04-02T09:41:59.014Z,82.43
2023-04-02T09:44:33.760Z,82.52
2023-04-02T09:47:10.649Z,82.71
2023-04-02T09:49:39.972Z,82.78
2023-04-02T09:52:27.957Z,82.76
2023-04-02T09:55:08.393Z,82.77
2023-04-02T09:57:38.295Z,82.45
2023-04-02T10:00:25.261Z,83.11
2023-04-02T10:03:19.520Z,83.41
2023-04-02T10:05:48.738Z,83.40
2023-04-02T10:08:19.300Z,83.56
2023-04-02T10:10:53.064Z,83.36
2023-04-02T10:13:31.889Z,83.64
2023-04-02T10:16:12.170Z,83.80
2023-04-02T10:18:50.908Z,82.85
2023-04-02T10:21:25.314Z,82.96
2023-04-02T10:23:54.720Z,83.07
2023-04-02T10:26:44.182Z,83.46
2023-04-02T10:29:18.085Z,83.62
2023-04-02T10:31:54.678Z,83.56
2023-04-02T10:34:54.059Z,83.52
2023-04-02T10:37:49.738Z,84.02
2023-04-02T10:40:24.694Z,84.27
2023-04-02T10:43:15.424Z,84.26
2023-04-02T10:45:51.193Z,83.70
2023-04-02T10:48:40.497Z,84.01
2023-04-02T10:51:28.548Z,84.27
2023-04-02T10:54:03.716Z,84.56
2023-04-02T10:56:41.004Z,84.85
2023-04-02T10:59:33.024Z,85.27
2023-04-02T11:02:07.391Z,85.53
2023-04-02T11:04:44.219Z,85.05
2023-04-02T11:07:20.654Z,85.24
2023-04-02T11:09:53.593Z,85.41
2023-04-02T11:12:59.660Z,84.90
2023-04-02T11:15:29.357Z,85.42
2023-04-02T11:17:57.360Z,85.33
2023-04-02T11:20:54.617Z,85.54
2023-04-02T11:23:32.027Z,85.72
2023-04-02T11:26:29.655Z,85.67
2023-04-02T11:29:16.683Z,85.60
2023-04-02T11:31:46.205Z,85.72
2023-04-02T11:34:35.144Z,86.33
2023-04-02T11:37:07.892Z,86.63
2023-04-02T11:39:57.061Z,86.96
2023-04-02T11:42:27.497Z,87.03
2023-04-02T11:44:58.935Z,86.98
2023-04-02T11:47:28.570Z,87.05
2023-04-02T11:49:59.063Z,87.60
2023-04-02T11:52:36.153Z,87.36
2023-04-02T11:55:27.961Z,87.06
2023-04-02T11:58:33.379Z,87.23
2023-04-02T12:01:14.844Z,87.45
2023-04-02T12:03:48.564Z,87.17
2023-04-02T12:06:47.276Z,87.31
2023-04-02T12:09:53.838Z,87.59
2023-04-02T12:12:24.317Z,87.85
2023-04-02T12:15:02.407Z,88.08
2023-04-02T12:17:39.286Z,88.32
2023-04-02T12:20:08.569Z,88.29
2023-04-02T12:22:46.165Z,88.89
2023-04-02T12:25:31.488Z,89.11
2023-04-02T12:28:20.814Z,88.74
2023-04-02T12:30:51.159Z,88.91
2023-04-02T12:33:33.866Z,88.87
2023-04-02T12:36:03.599Z,88.89
2023-04-02T12:38:36.983Z,89.39
2023-04-02T12:41:18.536Z,89.49
2023-04-02T12:43:46.296Z,89.48
2023-04-02T12:46:15.135Z,88.98
2023-04-02T12:48:43.040Z,88.92
2023-04-02T12:51:11.328Z,89.48
2023-04-02T12:53:41.249Z,89.12
2023-04-02T12:56:19.561Z,88.77
2023-04-02T12:58:58.857Z,88.72
2023-04-02T13:01:29.377Z,88.76
2023-04-02T13:04:01.626Z,89.14
2023-04-02T13:06:30.841Z,89.17
2023-04-02T13:08:59.998Z,89.40
2023-04-02T13:11:39.562Z,89.55
2023-04-02T13:14:17.277Z,89.96
2023-04-02T13:16:45.047Z,89.92
2023-04-02T13:19:24.155Z,89.92
2023-04-02T13:21:53.124Z,89.85
2023-04-02T13:24:42.150Z,90.06
2023-04-02T13:27:11.154Z,90.16
2023-04-02T13:29:38.914Z,90.39
2023-04-02T13:32:13.027Z,90.61
2023-04-02T13:34:40.734Z,90.46
2023-04-02T13:37:12.381Z,90.44
2023-04-02T13:39:40.107Z,90.20
2023-04-02T13:42:11.825Z,90.33
2023-04-02T13:44:39.648Z,90.48
2023-04-02T13:47:07.509Z,90.48
2023-04-02T13:49:36.027Z,90.16
2023-04-02T13:52:05.245Z,90.29
2023-04-02T13:54:46.656Z,90.34
2023-04-02T13:57:14.889Z,90.44
2023-04-02T13:59:42.823Z,90.65
2023-04-02T14:02:17.210Z,90.52
2023-04-02T14:04:52.877Z,90.42
2023-04-02T14:07:40.587Z,90.53
2023-04-02T14:10:15.072Z,90.15
2023-04-02T14:13:04.161Z,89.94
2023-04-02T14:15:44.747Z,89.89
2023-04-02T14:18:24.038Z,89.71
2023-04-02T14:21:07.893Z,89.35
2023-04-02T14:23:47.557Z,89.22
2023-04-02T14:27:05.999Z,89.21
2023-04-02T14:29:45.669Z,89.30
2023-04-02T14:32:49.205Z,89.50
2023-04-02T14:35:19.745Z,89.69
2023-04-02T14:38:00.099Z,89.79
2023-04-02T14:40:51.611Z,89.83
2023-04-02T14:43:37.072Z,89.78
2023-04-02T14:46:12.492Z,89.83
2023-04-02T14:48:47.838Z,89.90
2023-04-02T14:51:37.388Z,90.05
2023-04-02T14:54:23.546Z,90.03
2023-04-02T14:56:59.320Z,89.89
2023-04-02T14:59:34.057Z,90.04
2023-04-02T15:02:07.930Z,90.05
2023-04-02T15:04:45.793Z,89.93
2023-04-02T15:07:19.830Z,90.19
2023-04-02T15:10:14.312Z,90.38
2023-04-02T15:12:44.300Z,90.28
2023-04-02T15:15:11.971Z,90.25
2023-04-02T15:17:39.718Z,90.29
2023-04-02T15:20:18.821Z,90.26
2023-04-02T15:23:17.270Z,90.25
2023-04-02T15:25:55.478Z,90.26
2023-04-02T15:28:31.814Z,90.24
2023-04-02T15:31:07.274Z,90.29
2023-04-02T15:33:39.258Z,90.24
2023-04-02T15:36:36.994Z,89.99
2023-04-02T15:39:26.416Z,89.52
2023-04-02T15:42:17.000Z,89.57
2023-04-02T15:45:01.397Z,89.73
2023-04-02T15:47:56.153Z,89.98
2023-04-02T15:50:43.912Z,90.03
2023-04-02T15:53:39.272Z,89.95
2023-04-02T15:56:36.201Z,90.01
2023-04-02T15:59:40.925Z,90.16
2023-04-02T16:02:29.624Z,90.26
2023-04-02T16:05:04.089Z,90.70
2023-04-02T16:08:24.366Z,90.79
2023-04-02T16:10:52.056Z,90.74
2023-04-02T16:13:36.886Z,90.79
2023-04-02T16:16:10.748Z,90.60
2023-04-02T16:18:47.378Z,90.52
2023-04-02T16:21:20.702Z,90.57
2023-04-02T16:23:49.459Z,90.62
2023-04-02T16:26:29.449Z,90.65
2023-04-02T16:29:06.155Z,90.76
2023-04-02T16:31:47.101Z,90.61
2023-04-02T16:34:30.816Z,90.76
2023-04-02T16:37:12.630Z,90.68
2023-04-02T16:39:57.647Z,90.46
2023-04-02T16:42:48.408Z,90.45
2023-04-02T16:45:43.937Z,90.44
2023-04-02T16:48:25.073Z,90.49
2023-04-02T16:51:19.796Z,90.68
2023-04-02T16:54:01.392Z,90.81
2023-04-02T16:56:39.673Z,90.79
2023-04-02T16:59:17.730Z,90.85
2023-04-02T17:02:13.048Z,90.97
2023-04-02T17:05:10.228Z,91.04
2023-04-02T17:08:21.394Z,91.16
2023-04-02T17:11:01.356Z,91.17
2023-04-02T17:14:08.198Z,91.21
2023-04-02T17:16:42.950Z,91.29
2023-04-02T17:19:13.751Z,91.36
2023-04-02T17:21:46.403Z,91.58
2023-04-02T17:24:23.167Z,91.66
2023-04-02T17:26:56.465Z,91.88
2023-04-02T17:29:34.647Z,92.11
2023-04-02T17:32:04.616Z,92.04
2023-04-02T17:34:32.489Z,92.11
2023-04-02T17:37:11.514Z,92.24
2023-04-02T17:39:49.517Z,92.21
2023-04-02T17:42:36.200Z,92.14
2023-04-02T17:45:25.372Z,92.01
2023-04-02T17:48:24.913Z,91.89
2023-04-02T17:51:08.219Z,91.83
2023-04-02T17:53:54.506Z,91.82
2023-04-02T17:56:38.192Z,91.59
2023-04-02T17:59:23.753Z,91.45
2023-04-02T18:02:01.132Z,91.41
2023-04-02T18:04:47.108Z,91.34
2023-04-02T18:07:49.158Z,91.37
2023-04-02T18:10:23.034Z,91.31
2023-04-02T18:12:57.727Z,91.28
2023-04-02T18:15:41.343Z,91.19
2023-04-02T18:18:19.807Z,91.17
2023-04-02T18:21:21.530Z,91.17
2023-04-02T18:24:20.040Z,91.17
2023-04-02T18:27:09.314Z,91.20
2023-04-02T18:29:39.736Z,91.24
2023-04-02T18:32:19.422Z,91.20
2023-04-02T18:34:58.783Z,91.11
2023-04-02T18:37:32.531Z,91.05
2023-04-02T18:40:18.995Z,91.04
2023-04-02T18:42:59.841Z,91.05
2023-04-02T18:45:46.245Z,91.03
2023-04-02T18:48:39.239Z,91.01
2023-04-02T18:51:14.328Z,90.93
2023-04-02T18:53:43.180Z,90.92
2023-04-02T18:56:18.000Z,90.86
2023-04-02T18:58:52.973Z,90.83
2023-04-02T19:01:28.257Z,90.77
2023-04-02T19:04:06.293Z,90.74
2023-04-02T19:06:43.311Z,90.71
2023-04-02T19:09:21.341Z,90.71
2023-04-02T19:11:49.072Z,90.72
2023-04-02T19:14:19.447Z,90.72
2023-04-02T19:17:28.857Z,90.73
2023-04-02T19:20:05.893Z,90.70
2023-04-02T19:22:39.563Z,90.67
2023-04-02T19:25:35.985Z,90.65
2023-04-02T19:28:07.400Z,90.69
2023-04-02T19:30:58.398Z,90.69
2023-04-02T19:33:36.802Z,90.60
2023-04-02T19:36:32.260Z,90.52
2023-04-02T19:39:14.931Z,90.49
2023-04-02T19:41:51.699Z,90.43
2023-04-02T19:44:20.753Z,90.16
2023-04-02T19:46:51.443Z,89.66
2023-04-02T19:49:25.397Z,89.63
2023-04-02T19:51:53.735Z,89.44
2023-04-02T19:54:21.947Z,89.53
2023-04-02T19:56:50.141Z,89.47
2023-04-02T19:59:18.914Z,89.47
2023-04-02T20:01:47.339Z,89.43
2023-04-02T20:04:15.501Z,88.94
2023-04-02T20:06:43.705Z,88.75
2023-04-02T20:09:11.577Z,88.08
2023-04-02T20:11:39.335Z,88.26
2023-04-02T20:14:07.096Z,88.44
2023-04-02T20:16:36.878Z,88.48
2023-04-02T20:19:04.698Z,88.16
2023-04-02T20:21:38.243Z,88.16
2023-04-02T20:24:07.526Z,88.22
2023-04-02T20:26:36.700Z,87.92
2023-04-02T20:29:04.413Z,87.77
2023-04-02T20:31:32.774Z,87.82
2023-04-02T20:34:02.561Z,87.27
2023-04-02T20:36:31.295Z,87.23
2023-04-02T20:38:59.076Z,86.88
2023-04-02T20:41:27.475Z,86.98
2023-04-02T20:43:55.354Z,86.75
2023-04-02T20:46:23.163Z,86.04
2023-04-02T20:48:51.103Z,85.99
2023-04-02T20:51:18.754Z,85.89
2023-04-02T20:53:46.691Z,85.50
2023-04-02T20:56:16.656Z,86.00
2023-04-02T20:58:44.694Z,85.70
2023-04-02T21:01:21.522Z,85.40
2023-04-02T21:03:54.174Z,84.52
2023-04-02T21:06:23.947Z,84.72
2023-04-02T21:08:52.497Z,84.21
2023-04-02T21:11:22.468Z,82.90
2023-04-02T21:13:52.904Z,83.16
2023-04-02T21:16:23.526Z,83.83
2023-04-02T21:18:53.130Z,84.27
2023-04-02T21:21:22.675Z,82.92
2023-04-02T21:23:56.527Z,83.52
2023-04-02T21:26:27.044Z,83.57
2023-04-02T21:28:55.974Z,82.31
2023-04-02T21:31:26.518Z,82.79
2023-04-02T21:33:57.345Z,82.49
2023-04-02T21:36:29.067Z,82.92
2023-04-02T21:38:59.551Z,83.25
2023-04-02T21:41:30.771Z,81.77
2023-04-02T21:44:00.321Z,81.98
2023-04-02T21:46:30.597Z,82.30
2023-04-02T21:48:59.971Z,81.19
2023-04-02T21:51:30.104Z,81.39
2023-04-02T21:53:58.751Z,81.52
2023-04-02T21:56:29.961Z,77.41
2023-04-02T21:58:59.318Z,77.37
2023-04-02T22:01:28.837Z,78.23
2023-04-02T22:03:58.621Z,77.66
2023-04-02T22:06:28.308Z,77.37
2023-04-02T22:09:01.437Z,78.05
2023-04-02T22:11:35.033Z,78.01
2023-04-02T22:14:05.990Z,75.05
2023-04-02T22:16:35.685Z,75.69
2023-04-02T22:19:07.406Z,75.49
2023-04-02T22:21:36.194Z,75.27
2023-04-02T22:24:06.415Z,75.31
2023-04-02T22:26:35.092Z,74.69
2023-04-02T22:29:04.027Z,75.08
2023-04-02T22:31:34.945Z,75.70
2023-04-02T22:34:04.439Z,74.61
2023-04-02T22:36:32.864Z,74.36
2023-04-02T22:39:01.826Z,74.18
2023-04-02T22:41:32.052Z,74.56
2023-04-02T22:44:01.332Z,73.71
2023-04-02T22:46:30.315Z,74.01
2023-04-02T22:48:58.449Z,74.34
2023-04-02T22:51:28.083Z,75.68
2023-04-02T22:53:57.311Z,75.43
2023-04-02T22:56:28.870Z,74.43
2023-04-02T22:58:56.674Z,75.15
2023-04-02T23:01:33.837Z,73.80
2023-04-02T23:04:01.568Z,74.26
2023-04-02T23:06:29.637Z,74.15
2023-04-02T23:08:57.538Z,75.25
2023-04-02T23:11:27.518Z,73.97
2023-04-02T23:13:57.326Z,74.19
2023-04-02T23:16:27.667Z,73.62
2023-04-02T23:18:56.390Z,73.89
2023-04-02T23:21:25.152Z,74.19
2023-04-02T23:23:53.287Z,74.41
2023-04-02T23:26:29.235Z,75.31
2023-04-02T23:28:59.039Z,74.59
2023-04-02T23:31:27.504Z,74.49
2023-04-02T23:33:55.924Z,74.77
2023-04-02T23:36:28.450Z,74.19
2023-04-02T23:38:59.747Z,74.64
2023-04-02T23:41:29.089Z,74.34
2023-04-02T23:43:58.204Z,74.14
2023-04-02T23:46:26.535Z,74.33
2023-04-02T23:48:55.609Z,75.02
2023-04-02T23:51:24.853Z,74.33
2023-04-02T23:53:53.869Z,75.45
2023-04-02T23:56:22.886Z,75.59
2023-04-02T23:58:51.084Z,75.04
